sensor_id;sensor_type;location;lat;lon;timestamp;pressure;altitude;pressure_sealevel;temperature;humidity
33286;BME280;19656;50.096;20.014;2023-03-11T00:01:53;96425.45;;;12.09;59.53
33286;BME280;19656;50.096;20.014;2023-03-11T00:06:57;96433.89;;;12.05;59.52
33286;BME280;19656;50.096;20.014;2023-03-11T00:12:02;96435.08;;;12.03;59.51
33286;BME280;19656;50.096;20.014;2023-03-11T00:17:06;96439.02;;;12.00;59.31
33286;BME280;19656;50.096;20.014;2023-03-11T00:22:10;96440.44;;;11.94;59.26
33286;BME280;19656;50.096;20.014;2023-03-11T00:27:14;96437.21;;;11.90;59.25
33286;BME280;19656;50.096;20.014;2023-03-11T00:32:18;96426.52;;;11.87;59.27
33286;BME280;19656;50.096;20.014;2023-03-11T01:35:22;96378.30;;;11.55;59.80
33286;BME280;19656;50.096;20.014;2023-03-11T01:40:31;96383.00;;;11.52;59.78
33286;BME280;19656;50.096;20.014;2023-03-11T01:51:06;96386.83;;;11.50;58.62
33286;BME280;19656;50.096;20.014;2023-03-11T01:56:12;96381.54;;;11.49;57.83
33286;BME280;19656;50.096;20.014;2023-03-11T02:01:18;96376.61;;;11.44;57.16
33286;BME280;19656;50.096;20.014;2023-03-11T02:06:24;96375.59;;;11.40;56.32
33286;BME280;19656;50.096;20.014;2023-03-11T02:11:29;96377.57;;;11.38;55.89
33286;BME280;19656;50.096;20.014;2023-03-11T02:16:34;96388.38;;;11.35;55.45
33286;BME280;19656;50.096;20.014;2023-03-11T02:21:39;96388.11;;;11.31;55.38
33286;BME280;19656;50.096;20.014;2023-03-11T02:27:11;96391.97;;;11.25;55.31
33286;BME280;19656;50.096;20.014;2023-03-11T02:35:18;96387.17;;;11.14;54.21
33286;BME280;19656;50.096;20.014;2023-03-11T02:45:30;96409.45;;;10.86;53.55
33286;BME280;19656;50.096;20.014;2023-03-11T02:50:35;96413.63;;;10.75;53.42
33286;BME280;19656;50.096;20.014;2023-03-11T02:55:40;96414.63;;;10.63;53.23
33286;BME280;19656;50.096;20.014;2023-03-11T03:00:48;96414.73;;;10.51;52.62
33286;BME280;19656;50.096;20.014;2023-03-11T03:06:02;96414.02;;;10.40;52.04
33286;BME280;19656;50.096;20.014;2023-03-11T03:35:17;96410.85;;;9.91;51.45
33286;BME280;19656;50.096;20.014;2023-03-11T03:40:55;96417.30;;;9.84;51.85
33286;BME280;19656;50.096;20.014;2023-03-11T03:46:30;96410.29;;;9.76;52.07
33286;BME280;19656;50.096;20.014;2023-03-11T03:51:47;96408.20;;;9.72;52.09
33286;BME280;19656;50.096;20.014;2023-03-11T03:56:59;96407.66;;;9.67;52.29
33286;BME280;19656;50.096;20.014;2023-03-11T04:02:12;96411.52;;;9.60;52.28
33286;BME280;19656;50.096;20.014;2023-03-11T04:07:19;96412.45;;;9.56;52.27
33286;BME280;19656;50.096;20.014;2023-03-11T04:12:38;96403.08;;;9.51;52.25
33286;BME280;19656;50.096;20.014;2023-03-11T04:17:51;96405.91;;;9.40;52.21
33286;BME280;19656;50.096;20.014;2023-03-11T04:23:00;96406.81;;;9.40;52.24
33286;BME280;19656;50.096;20.014;2023-03-11T04:28:29;96393.75;;;9.38;52.10
33286;BME280;19656;50.096;20.014;2023-03-11T04:35:20;96375.02;;;9.38;52.22
33286;BME280;19656;50.096;20.014;2023-03-11T04:41:06;96381.41;;;9.23;52.38
33286;BME280;19656;50.096;20.014;2023-03-11T04:46:24;96386.71;;;9.18;52.86
33286;BME280;19656;50.096;20.014;2023-03-11T04:51:33;96388.48;;;9.11;53.33
33286;BME280;19656;50.096;20.014;2023-03-11T04:57:32;96400.98;;;9.10;53.58
33286;BME280;19656;50.096;20.014;2023-03-11T05:02:38;96403.67;;;9.11;53.43
33286;BME280;19656;50.096;20.014;2023-03-11T05:07:47;96412.23;;;9.14;53.46
33286;BME280;19656;50.096;20.014;2023-03-11T05:12:58;96412.02;;;9.16;53.18
33286;BME280;19656;50.096;20.014;2023-03-11T05:18:23;96422.17;;;9.03;53.67
33286;BME280;19656;50.096;20.014;2023-03-11T05:23:40;96421.58;;;8.87;54.82
33286;BME280;19656;50.096;20.014;2023-03-11T05:29:16;96420.25;;;8.61;56.54
33286;BME280;19656;50.096;20.014;2023-03-11T05:35:22;96424.33;;;8.47;58.13
33286;BME280;19656;50.096;20.014;2023-03-11T05:40:32;96434.80;;;8.40;58.69
33286;BME280;19656;50.096;20.014;2023-03-11T05:45:47;96436.27;;;8.30;58.66
33286;BME280;19656;50.096;20.014;2023-03-11T05:51:09;96437.48;;;8.15;59.19
33286;BME280;19656;50.096;20.014;2023-03-11T05:56:15;96442.00;;;8.06;59.53
33286;BME280;19656;50.096;20.014;2023-03-11T06:01:20;96451.45;;;7.90;60.11
33286;BME280;19656;50.096;20.014;2023-03-11T06:06:24;96456.75;;;7.73;60.71
33286;BME280;19656;50.096;20.014;2023-03-11T06:11:41;96459.73;;;7.65;60.45
33286;BME280;19656;50.096;20.014;2023-03-11T06:16:49;96471.69;;;7.41;60.74
33286;BME280;19656;50.096;20.014;2023-03-11T06:21:57;96488.84;;;7.23;60.92
33286;BME280;19656;50.096;20.014;2023-03-11T06:27:10;96491.12;;;7.09;61.30
33286;BME280;19656;50.096;20.014;2023-03-11T06:35:28;96517.91;;;7.15;61.57
33286;BME280;19656;50.096;20.014;2023-03-11T06:41:23;96527.54;;;7.02;61.22
33286;BME280;19656;50.096;20.014;2023-03-11T06:47:20;96536.55;;;6.90;61.41
33286;BME280;19656;50.096;20.014;2023-03-11T06:52:53;96545.30;;;6.84;61.13
33286;BME280;19656;50.096;20.014;2023-03-11T06:58:54;96559.02;;;6.76;61.67
33286;BME280;19656;50.096;20.014;2023-03-11T07:18:17;96602.41;;;6.16;63.91
33286;BME280;19656;50.096;20.014;2023-03-11T07:23:50;96613.52;;;6.11;64.20
33286;BME280;19656;50.096;20.014;2023-03-11T07:29:36;96617.47;;;6.25;63.34
33286;BME280;19656;50.096;20.014;2023-03-11T08:39:11;96693.02;;;5.77;60.34
33286;BME280;19656;50.096;20.014;2023-03-11T10:05:28;96801.02;;;5.70;61.18
33286;BME280;19656;50.096;20.014;2023-03-11T10:10:37;96807.71;;;5.72;60.59
33286;BME280;19656;50.096;20.014;2023-03-11T10:57:18;96893.48;;;4.90;64.32
33286;BME280;19656;50.096;20.014;2023-03-11T11:03:49;96906.13;;;4.80;64.78
33286;BME280;19656;50.096;20.014;2023-03-11T11:09:17;96912.65;;;4.72;65.38
33286;BME280;19656;50.096;20.014;2023-03-11T11:14:24;96916.13;;;4.66;66.06
33286;BME280;19656;50.096;20.014;2023-03-11T11:19:28;96924.71;;;4.61;66.17
33286;BME280;19656;50.096;20.014;2023-03-11T11:24:32;96931.33;;;4.50;66.68
33286;BME280;19656;50.096;20.014;2023-03-11T11:29:36;96942.07;;;4.39;67.19
33286;BME280;19656;50.096;20.014;2023-03-11T11:41:38;96965.58;;;4.22;67.60
33286;BME280;19656;50.096;20.014;2023-03-11T12:25:19;97058.57;;;3.91;68.43
33286;BME280;19656;50.096;20.014;2023-03-11T12:31:01;97070.93;;;3.95;68.74
33286;BME280;19656;50.096;20.014;2023-03-11T12:44:41;97132.03;;;3.84;68.10
33286;BME280;19656;50.096;20.014;2023-03-11T13:11:27;97221.84;;;3.65;68.97
33286;BME280;19656;50.096;20.014;2023-03-11T13:24:47;97257.35;;;3.63;67.05
33286;BME280;19656;50.096;20.014;2023-03-11T13:36:50;97306.98;;;3.74;66.96
33286;BME280;19656;50.096;20.014;2023-03-11T13:48:43;97324.39;;;4.85;66.02
33286;BME280;19656;50.096;20.014;2023-03-11T13:54:08;97338.02;;;4.57;65.70
33286;BME280;19656;50.096;20.014;2023-03-11T14:00:05;97363.09;;;4.25;65.33
33286;BME280;19656;50.096;20.014;2023-03-11T14:05:24;97374.77;;;3.98;66.21
33286;BME280;19656;50.096;20.014;2023-03-11T14:10:30;97386.73;;;3.70;66.90
33286;BME280;19656;50.096;20.014;2023-03-11T14:16:08;97405.96;;;3.59;67.59
33286;BME280;19656;50.096;20.014;2023-03-11T14:21:17;97416.08;;;3.50;68.42
33286;BME280;19656;50.096;20.014;2023-03-11T14:26:33;97423.56;;;3.51;68.23
33286;BME280;19656;50.096;20.014;2023-03-11T14:43:22;97476.73;;;3.45;65.86
33286;BME280;19656;50.096;20.014;2023-03-11T14:48:56;97492.83;;;3.36;64.58
33286;BME280;19656;50.096;20.014;2023-03-11T14:54:19;97506.27;;;3.25;63.77
33286;BME280;19656;50.096;20.014;2023-03-11T14:59:35;97517.08;;;3.23;63.65
33286;BME280;19656;50.096;20.014;2023-03-11T15:05:05;97531.47;;;3.20;63.44
33286;BME280;19656;50.096;20.014;2023-03-11T15:10:36;97550.64;;;3.19;63.72
33286;BME280;19656;50.096;20.014;2023-03-11T15:15:41;97561.53;;;3.24;63.71
33286;BME280;19656;50.096;20.014;2023-03-11T15:21:22;97570.99;;;3.24;63.71
33286;BME280;19656;50.096;20.014;2023-03-11T15:26:33;97584.30;;;3.12;64.02
33286;BME280;19656;50.096;20.014;2023-03-11T15:31:43;97588.27;;;3.19;63.62
33286;BME280;19656;50.096;20.014;2023-03-11T15:37:25;97606.69;;;3.16;63.80
33286;BME280;19656;50.096;20.014;2023-03-11T15:42:33;97617.23;;;3.13;64.17
33286;BME280;19656;50.096;20.014;2023-03-11T15:47:54;97630.30;;;3.17;64.39
33286;BME280;19656;50.096;20.014;2023-03-11T15:53:04;97640.69;;;3.22;64.51
33286;BME280;19656;50.096;20.014;2023-03-11T15:58:22;97651.51;;;3.26;64.66
33286;BME280;19656;50.096;20.014;2023-03-11T16:03:37;97661.10;;;3.27;64.62
33286;BME280;19656;50.096;20.014;2023-03-11T16:08:53;97670.48;;;3.19;64.77
33286;BME280;19656;50.096;20.014;2023-03-11T16:14:22;97676.02;;;3.30;65.21
33286;BME280;19656;50.096;20.014;2023-03-11T16:19:30;97689.98;;;3.37;65.75
33286;BME280;19656;50.096;20.014;2023-03-11T16:24:37;97702.29;;;3.46;66.19
33286;BME280;19656;50.096;20.014;2023-03-11T16:35:09;97714.60;;;3.62;66.43
33286;BME280;19656;50.096;20.014;2023-03-11T16:40:19;97719.30;;;3.69;66.34
33286;BME280;19656;50.096;20.014;2023-03-11T16:45:22;97728.96;;;3.68;65.71
33286;BME280;19656;50.096;20.014;2023-03-11T16:50:26;97739.64;;;3.62;65.58
33286;BME280;19656;50.096;20.014;2023-03-11T16:55:30;97751.87;;;3.66;65.50
33286;BME280;19656;50.096;20.014;2023-03-11T17:00:35;97760.80;;;3.61;65.27
33286;BME280;19656;50.096;20.014;2023-03-11T17:05:50;97766.08;;;3.53;65.13
33286;BME280;19656;50.096;20.014;2023-03-11T17:11:39;97783.54;;;3.38;65.06
33286;BME280;19656;50.096;20.014;2023-03-11T17:41:23;97855.08;;;3.21;63.36
33286;BME280;19656;50.096;20.014;2023-03-11T17:55:12;97885.08;;;3.13;64.16
33286;BME280;19656;50.096;20.014;2023-03-11T18:00:43;97903.49;;;3.10;63.78
33286;BME280;19656;50.096;20.014;2023-03-11T18:06:07;97923.29;;;3.06;63.67
33286;BME280;19656;50.096;20.014;2023-03-11T18:11:24;97928.53;;;3.06;63.92
33286;BME280;19656;50.096;20.014;2023-03-11T18:29:10;97974.75;;;2.93;62.58
33286;BME280;19656;50.096;20.014;2023-03-11T18:35:31;97988.25;;;2.96;61.80
33286;BME280;19656;50.096;20.014;2023-03-11T18:40:56;97998.79;;;2.96;61.55
33286;BME280;19656;50.096;20.014;2023-03-11T18:46:25;98009.11;;;2.96;61.21
33286;BME280;19656;50.096;20.014;2023-03-11T18:51:59;98020.15;;;2.93;60.65
33286;BME280;19656;50.096;20.014;2023-03-11T19:11:13;98051.49;;;2.85;60.60
33286;BME280;19656;50.096;20.014;2023-03-11T19:16:46;98053.15;;;2.83;60.74
33286;BME280;19656;50.096;20.014;2023-03-11T19:22:10;98064.58;;;2.90;60.75
33286;BME280;19656;50.096;20.014;2023-03-11T19:27:31;98088.58;;;2.90;60.83
33286;BME280;19656;50.096;20.014;2023-03-11T19:33:37;98117.45;;;2.83;63.15
33286;BME280;19656;50.096;20.014;2023-03-11T19:39:07;98123.09;;;2.67;64.57
33286;BME280;19656;50.096;20.014;2023-03-11T19:44:28;98125.04;;;2.66;64.06
33286;BME280;19656;50.096;20.014;2023-03-11T19:49:35;98122.44;;;2.70;63.46
33286;BME280;19656;50.096;20.014;2023-03-11T19:55:24;98135.73;;;2.74;63.01
33286;BME280;19656;50.096;20.014;2023-03-11T20:00:37;98147.27;;;2.82;61.99
33286;BME280;19656;50.096;20.014;2023-03-11T20:06:06;98155.66;;;2.94;61.18
33286;BME280;19656;50.096;20.014;2023-03-11T20:11:38;98167.05;;;2.98;60.42
33286;BME280;19656;50.096;20.014;2023-03-11T20:17:02;98170.56;;;2.90;60.33
33286;BME280;19656;50.096;20.014;2023-03-11T20:22:16;98178.95;;;2.82;59.68
33286;BME280;19656;50.096;20.014;2023-03-11T20:28:13;98183.45;;;2.76;59.87
33286;BME280;19656;50.096;20.014;2023-03-11T20:35:35;98189.89;;;2.85;59.30
33286;BME280;19656;50.096;20.014;2023-03-11T20:40:58;98194.52;;;2.79;58.79
33286;BME280;19656;50.096;20.014;2023-03-11T20:47:03;98193.27;;;2.79;58.84
33286;BME280;19656;50.096;20.014;2023-03-11T20:53:31;98202.06;;;2.79;58.91
33286;BME280;19656;50.096;20.014;2023-03-11T20:58:44;98205.29;;;2.81;58.85
33286;BME280;19656;50.096;20.014;2023-03-11T21:03:58;98212.33;;;2.72;58.90
33286;BME280;19656;50.096;20.014;2023-03-11T21:09:15;98214.86;;;2.67;59.37
33286;BME280;19656;50.096;20.014;2023-03-11T21:14:38;98212.28;;;2.70;59.31
33286;BME280;19656;50.096;20.014;2023-03-11T21:20:04;98214.52;;;2.63;59.43
33286;BME280;19656;50.096;20.014;2023-03-11T21:25:24;98215.16;;;2.59;59.76
33286;BME280;19656;50.096;20.014;2023-03-11T21:43:49;98221.02;;;2.49;60.08
33286;BME280;19656;50.096;20.014;2023-03-11T21:49:17;98227.30;;;2.54;60.05
33286;BME280;19656;50.096;20.014;2023-03-11T21:55:10;98236.11;;;2.56;60.03
33286;BME280;19656;50.096;20.014;2023-03-11T22:00:56;98244.23;;;2.59;60.06
33286;BME280;19656;50.096;20.014;2023-03-11T22:06:16;98248.86;;;2.53;60.12
33286;BME280;19656;50.096;20.014;2023-03-11T22:11:47;98259.69;;;2.58;60.18
33286;BME280;19656;50.096;20.014;2023-03-11T22:17:50;98265.43;;;2.55;60.41
33286;BME280;19656;50.096;20.014;2023-03-11T22:23:00;98267.27;;;2.57;60.48
33286;BME280;19656;50.096;20.014;2023-03-11T22:28:29;98269.77;;;2.60;60.62
33286;BME280;19656;50.096;20.014;2023-03-11T22:35:26;98271.14;;;2.65;60.62
33286;BME280;19656;50.096;20.014;2023-03-11T22:40:55;98275.83;;;2.66;60.35
33286;BME280;19656;50.096;20.014;2023-03-11T22:45:59;98278.69;;;2.69;60.24
33286;BME280;19656;50.096;20.014;2023-03-11T22:51:04;98285.89;;;2.73;60.14
33286;BME280;19656;50.096;20.014;2023-03-11T22:56:11;98288.19;;;2.76;60.06
33286;BME280;19656;50.096;20.014;2023-03-11T23:07:43;98293.39;;;2.73;60.09
33286;BME280;19656;50.096;20.014;2023-03-11T23:13:15;98298.64;;;2.73;60.21
33286;BME280;19656;50.096;20.014;2023-03-11T23:18:49;98298.44;;;2.78;60.00
33286;BME280;19656;50.096;20.014;2023-03-11T23:24:28;98305.11;;;2.70;59.91
33286;BME280;19656;50.096;20.014;2023-03-11T23:35:39;98306.55;;;2.72;59.60
33286;BME280;19656;50.096;20.014;2023-03-11T23:41:10;98312.96;;;2.66;59.56
33286;BME280;19656;50.096;20.014;2023-03-11T23:46:28;98317.47;;;2.67;59.43
33286;BME280;19656;50.096;20.014;2023-03-11T23:51:39;98320.98;;;2.62;59.64
33286;BME280;19656;50.096;20.014;2023-03-11T23:56:53;98319.05;;;2.66;59.53
